createdAt,value
2023-01-29T00:00:10.012Z,6.30
2023-01-29T00:03:16.245Z,8.07
2023-01-29T00:06:18.718Z,7.63
2023-01-29T00:09:21.385Z,7.95
2023-01-29T00:12:23.785Z,6.10
2023-01-29T00:15:26.159Z,7.22
2023-01-29T00:18:29.916Z,7.38
2023-01-29T00:21:32.584Z,7.60
2023-01-29T00:24:35.047Z,7.65
2023-01-29T00:27:38.608Z,6.57
2023-01-29T00:30:41.231Z,7.07
2023-01-29T00:33:43.723Z,6.78
2023-01-29T00:36:46.440Z,5.87
2023-01-29T00:39:49.386Z,6.03
2023-01-29T00:43:10.630Z,6.03
2023-01-29T00:46:14.321Z,5.38
2023-01-29T00:49:16.945Z,6.13
2023-01-29T00:52:24.949Z,5.75
2023-01-29T00:55:27.465Z,5.88
2023-01-29T00:58:34.236Z,5.47
2023-01-29T01:01:55.313Z,6.32
2023-01-29T01:04:57.878Z,6.47
2023-01-29T01:08:00.328Z,5.53
2023-01-29T01:11:06.461Z,6.28
2023-01-29T01:14:09.240Z,5.95
2023-01-29T01:17:11.614Z,5.10
2023-01-29T01:20:14.829Z,5.55
2023-01-29T01:23:19.601Z,5.68
2023-01-29T01:26:21.971Z,6.35
2023-01-29T01:29:24.656Z,4.93
2023-01-29T01:32:27.181Z,6.05
2023-01-29T01:35:29.702Z,5.07
2023-01-29T01:38:32.069Z,5.67
2023-01-29T01:41:34.432Z,5.28
2023-01-29T01:45:06.461Z,5.45
2023-01-29T01:48:15.463Z,5.53
2023-01-29T01:51:19.574Z,5.40
2023-01-29T01:54:27.476Z,5.45
2023-01-29T01:57:32.287Z,5.18
2023-01-29T02:00:34.986Z,3.40
2023-01-29T02:04:12.906Z,4.50
2023-01-29T02:07:34.097Z,4.80
2023-01-29T02:10:42.807Z,5.17
2023-01-29T02:13:45.373Z,4.05
2023-01-29T02:16:47.923Z,4.82
2023-01-29T02:20:06.511Z,4.53
2023-01-29T02:23:23.389Z,4.13
2023-01-29T02:26:39.184Z,5.10
2023-01-29T02:30:11.434Z,3.92
2023-01-29T02:33:37.225Z,4.03
2023-01-29T02:36:57.010Z,3.03
2023-01-29T02:40:12.612Z,5.10
2023-01-29T02:43:42.912Z,4.70
2023-01-29T02:47:01.216Z,3.33
2023-01-29T02:50:26.610Z,4.75
2023-01-29T02:53:41.260Z,2.75
2023-01-29T02:56:53.769Z,4.63
2023-01-29T03:00:02.591Z,3.55
2023-01-29T03:03:12.638Z,3.38
2023-01-29T03:06:32.301Z,4.30
2023-01-29T03:09:41.454Z,4.15
2023-01-29T03:12:47.815Z,3.70
2023-01-29T03:16:01.453Z,3.97
2023-01-29T03:19:50.940Z,4.15
2023-01-29T03:23:03.896Z,3.42
2023-01-29T03:26:25.329Z,3.88
2023-01-29T03:29:50.592Z,3.83
2023-01-29T03:32:55.596Z,4.18
2023-01-29T03:36:08.892Z,2.78
2023-01-29T03:39:12.940Z,3.13
2023-01-29T03:42:30.331Z,3.30
2023-01-29T03:45:43.305Z,3.00
2023-01-29T03:49:01.173Z,2.60
2023-01-29T03:52:19.994Z,2.88
2023-01-29T03:55:43.482Z,2.60
2023-01-29T03:59:19.487Z,2.50
2023-01-29T04:02:46.720Z,2.90
2023-01-29T04:05:58.650Z,3.10
2023-01-29T04:09:16.700Z,2.30
2023-01-29T04:12:24.609Z,2.00
2023-01-29T04:15:30.077Z,1.92
2023-01-29T04:18:33.551Z,2.28
2023-01-29T04:21:49.432Z,2.13
2023-01-29T04:24:52.010Z,2.65
2023-01-29T04:28:06.143Z,2.20
2023-01-29T04:31:12.655Z,2.38
2023-01-29T04:34:28.797Z,2.65
2023-01-29T04:37:56.604Z,2.22
2023-01-29T04:41:11.563Z,2.72
2023-01-29T04:44:23.879Z,2.37
2023-01-29T04:47:45.379Z,1.77
2023-01-29T04:51:12.876Z,2.42
2023-01-29T04:54:30.193Z,2.30
2023-01-29T04:57:53.265Z,2.40
2023-01-29T05:00:58.825Z,2.08
2023-01-29T05:04:11.020Z,2.13
2023-01-29T05:07:15.440Z,2.17
2023-01-29T05:10:21.312Z,4.03
2023-01-29T05:13:25.603Z,4.75
2023-01-29T05:16:42.145Z,3.07
2023-01-29T05:19:45.851Z,3.08
2023-01-29T05:22:49.225Z,2.80
2023-01-29T05:25:52.108Z,3.40
2023-01-29T05:28:56.173Z,2.60
2023-01-29T05:31:58.907Z,2.70
2023-01-29T05:35:01.490Z,8.38
2023-01-29T05:38:04.106Z,7.13
2023-01-29T05:41:14.068Z,4.85
2023-01-29T05:44:16.459Z,3.97
2023-01-29T05:47:20.436Z,2.40
2023-01-29T05:50:23.820Z,2.55
2023-01-29T05:53:26.127Z,4.45
2023-01-29T05:56:28.502Z,4.30
2023-01-29T05:59:31.316Z,6.80
2023-01-29T06:02:33.804Z,4.60
2023-01-29T06:05:39.736Z,4.32
2023-01-29T06:08:42.296Z,4.10
2023-01-29T06:11:44.823Z,3.90
2023-01-29T06:14:47.189Z,5.22
2023-01-29T06:17:49.594Z,5.63
2023-01-29T06:20:52.431Z,4.22
2023-01-29T06:23:55.218Z,4.97
2023-01-29T06:26:57.536Z,3.07
2023-01-29T06:29:59.849Z,4.38
2023-01-29T06:33:02.859Z,3.83
2023-01-29T06:36:05.869Z,3.03
2023-01-29T06:39:08.262Z,4.75
2023-01-29T06:42:11.227Z,5.60
2023-01-29T06:45:13.672Z,7.78
2023-01-29T06:48:16.464Z,5.77
2023-01-29T06:51:19.021Z,5.00
2023-01-29T06:54:21.408Z,5.45
2023-01-29T06:57:23.880Z,2.90
2023-01-29T07:00:26.269Z,3.17
2023-01-29T07:03:28.663Z,2.67
2023-01-29T07:06:31.611Z,3.45
2023-01-29T07:09:34.040Z,2.78
2023-01-29T07:12:36.404Z,3.50
2023-01-29T07:15:38.762Z,4.28
2023-01-29T07:18:41.119Z,3.33
2023-01-29T07:21:43.644Z,3.15
2023-01-29T07:24:46.104Z,2.95
2023-01-29T07:27:48.948Z,2.23
2023-01-29T07:30:56.303Z,2.10
2023-01-29T07:33:58.717Z,2.35
2023-01-29T07:37:01.056Z,2.22
2023-01-29T07:40:05.357Z,2.88
2023-01-29T07:43:10.535Z,2.38
2023-01-29T07:46:14.128Z,3.28
2023-01-29T07:49:16.928Z,2.87
2023-01-29T07:52:21.945Z,3.45
2023-01-29T07:55:25.241Z,2.20
2023-01-29T07:58:27.694Z,3.37
2023-01-29T08:01:30.173Z,2.88
2023-01-29T08:04:32.623Z,2.47
2023-01-29T08:07:35.172Z,2.25
2023-01-29T08:10:39.414Z,2.65
2023-01-29T08:13:41.924Z,2.53
2023-01-29T08:16:44.336Z,2.00
2023-01-29T08:19:46.748Z,2.27
2023-01-29T08:22:49.479Z,2.72
2023-01-29T08:25:52.146Z,2.30
2023-01-29T08:28:54.695Z,2.27
2023-01-29T08:31:57.424Z,2.75
2023-01-29T08:34:59.857Z,2.47
2023-01-29T08:38:03.980Z,2.45
2023-01-29T08:41:07.381Z,2.17
2023-01-29T08:44:10.257Z,2.45
2023-01-29T08:47:12.586Z,2.92
2023-01-29T08:50:16.720Z,2.37
2023-01-29T08:53:24.362Z,2.80
2023-01-29T08:56:26.736Z,2.38
2023-01-29T08:59:29.144Z,2.93
2023-01-29T09:02:31.589Z,2.78
2023-01-29T09:05:38.807Z,2.67
2023-01-29T09:08:41.504Z,2.20
2023-01-29T09:11:44.606Z,2.75
2023-01-29T09:14:46.995Z,2.10
2023-01-29T09:17:49.558Z,2.92
2023-01-29T09:20:54.198Z,2.40
2023-01-29T09:23:56.602Z,2.35
2023-01-29T09:27:00.947Z,2.50
2023-01-29T09:30:05.405Z,2.30
2023-01-29T09:33:08.363Z,2.97
2023-01-29T09:36:10.761Z,3.33
2023-01-29T09:39:13.168Z,3.15
2023-01-29T09:42:41.939Z,3.30
2023-01-29T09:46:08.074Z,2.80
2023-01-29T09:49:41.760Z,3.53
2023-01-29T09:52:58.902Z,3.50
2023-01-29T09:56:06.066Z,5.00
2023-01-29T09:59:12.434Z,6.07
2023-01-29T10:02:55.941Z,2.97
2023-01-29T10:06:35.759Z,3.55
2023-01-29T10:10:22.526Z,3.45
2023-01-29T10:13:47.864Z,2.65
2023-01-29T10:17:15.917Z,3.47
2023-01-29T10:20:39.716Z,2.70
2023-01-29T10:23:50.287Z,2.47
2023-01-29T10:26:52.963Z,3.10
2023-01-29T10:29:56.451Z,4.45
2023-01-29T10:33:02.661Z,3.30
2023-01-29T10:36:10.964Z,3.80
2023-01-29T10:39:24.481Z,4.65
2023-01-29T10:42:34.304Z,3.83
2023-01-29T10:46:08.951Z,4.47
2023-01-29T10:49:39.038Z,4.00
2023-01-29T10:52:59.457Z,4.57
2023-01-29T10:56:14.072Z,3.90
2023-01-29T10:59:44.649Z,2.70
2023-01-29T11:02:50.399Z,4.82
2023-01-29T11:06:17.704Z,2.92
2023-01-29T11:09:20.229Z,2.90
2023-01-29T11:12:27.316Z,4.10
2023-01-29T11:15:32.482Z,2.97
2023-01-29T11:18:52.945Z,4.22
2023-01-29T11:22:01.179Z,3.45
2023-01-29T11:25:22.525Z,3.00
2023-01-29T11:28:43.217Z,3.97
2023-01-29T11:31:45.766Z,5.20
2023-01-29T11:35:09.945Z,16.13
2023-01-29T11:38:27.017Z,4.20
2023-01-29T11:41:29.537Z,4.40
2023-01-29T11:44:41.602Z,4.57
2023-01-29T11:47:49.244Z,4.00
2023-01-29T11:50:55.652Z,3.10
2023-01-29T11:54:01.943Z,3.70
2023-01-29T11:57:04.942Z,3.47
2023-01-29T12:00:21.738Z,2.92
2023-01-29T12:03:43.811Z,3.80
2023-01-29T12:06:51.963Z,3.88
2023-01-29T12:09:57.937Z,4.50
2023-01-29T12:13:27.693Z,3.97
2023-01-29T12:16:38.964Z,5.85
2023-01-29T12:19:46.728Z,5.05
2023-01-29T12:23:01.256Z,4.38
2023-01-29T12:26:11.192Z,6.60
2023-01-29T12:29:13.972Z,3.70
2023-01-29T12:32:28.960Z,3.75
2023-01-29T12:35:35.762Z,4.30
2023-01-29T12:38:38.212Z,4.57
2023-01-29T12:41:50.806Z,5.25
2023-01-29T12:45:08.712Z,5.27
2023-01-29T12:48:17.493Z,5.88
2023-01-29T12:51:31.171Z,5.65
2023-01-29T12:54:50.064Z,5.10
2023-01-29T12:57:57.692Z,5.75
2023-01-29T13:01:16.827Z,5.70
2023-01-29T13:04:30.963Z,4.18
2023-01-29T13:07:41.222Z,5.03
2023-01-29T13:10:49.121Z,5.70
2023-01-29T13:13:56.422Z,12.07
2023-01-29T13:17:09.915Z,7.07
2023-01-29T13:20:24.379Z,5.60
2023-01-29T13:23:42.049Z,6.82
2023-01-29T13:26:46.459Z,5.57
2023-01-29T13:29:49.160Z,5.78
2023-01-29T13:32:54.396Z,4.47
2023-01-29T13:36:00.139Z,4.45
2023-01-29T13:39:07.459Z,4.03
2023-01-29T13:42:37.801Z,5.93
2023-01-29T13:45:45.049Z,5.97
2023-01-29T13:48:50.954Z,14.30
2023-01-29T13:51:54.267Z,11.18
2023-01-29T13:55:21.396Z,8.13
2023-01-29T13:58:32.581Z,5.28
2023-01-29T14:01:46.859Z,4.35
2023-01-29T14:04:49.701Z,5.28
2023-01-29T14:07:52.142Z,8.95
2023-01-29T14:11:21.573Z,8.40
2023-01-29T14:14:49.104Z,6.43
2023-01-29T14:18:18.444Z,10.10
2023-01-29T14:21:28.460Z,11.87
2023-01-29T14:24:31.409Z,10.98
2023-01-29T14:27:36.656Z,16.67
2023-01-29T14:30:41.123Z,8.95
2023-01-29T14:33:45.317Z,14.75
2023-01-29T14:36:55.254Z,11.00
2023-01-29T14:40:08.018Z,10.25
2023-01-29T14:43:20.056Z,9.87
2023-01-29T14:46:43.458Z,6.57
2023-01-29T14:50:26.976Z,10.82
2023-01-29T14:53:48.464Z,8.07
2023-01-29T14:57:00.061Z,8.68
2023-01-29T15:00:14.981Z,8.05
2023-01-29T15:03:27.514Z,8.95
2023-01-29T15:06:53.098Z,10.18
2023-01-29T15:10:21.501Z,11.05
2023-01-29T15:13:35.744Z,10.85
2023-01-29T15:16:59.310Z,14.87
2023-01-29T15:20:01.969Z,29.27
2023-01-29T15:23:23.659Z,20.92
2023-01-29T15:26:27.179Z,15.10
2023-01-29T15:29:30.301Z,13.07
2023-01-29T15:32:36.657Z,11.13
2023-01-29T15:35:41.353Z,9.27
2023-01-29T15:38:46.774Z,8.02
2023-01-29T15:41:51.841Z,7.43
2023-01-29T15:44:57.494Z,5.72
2023-01-29T15:48:12.260Z,6.33
2023-01-29T15:51:18.541Z,5.65
2023-01-29T15:54:21.161Z,5.82
2023-01-29T15:57:28.322Z,7.13
2023-01-29T16:00:31.486Z,6.78
2023-01-29T16:03:36.041Z,7.75
2023-01-29T16:06:41.007Z,11.48
2023-01-29T16:09:44.015Z,11.00
2023-01-29T16:12:51.446Z,10.45
2023-01-29T16:15:55.714Z,9.52
2023-01-29T16:19:00.806Z,9.53
2023-01-29T16:22:06.833Z,9.88
2023-01-29T16:25:14.740Z,12.18
2023-01-29T16:28:18.096Z,11.77
2023-01-29T16:31:25.760Z,13.43
2023-01-29T16:34:35.499Z,10.85
2023-01-29T16:37:38.947Z,10.75
2023-01-29T16:41:13.124Z,12.35
2023-01-29T16:44:15.840Z,10.98
2023-01-29T16:47:37.570Z,10.18
2023-01-29T16:50:53.887Z,13.80
2023-01-29T16:54:02.253Z,11.90
2023-01-29T16:57:04.949Z,17.55
2023-01-29T17:00:18.629Z,14.53
2023-01-29T17:03:21.665Z,11.00
2023-01-29T17:06:26.597Z,8.95
2023-01-29T17:09:35.213Z,10.00
2023-01-29T17:12:39.110Z,9.50
2023-01-29T17:15:43.089Z,8.52
2023-01-29T17:18:45.659Z,8.98
2023-01-29T17:21:48.261Z,9.00
2023-01-29T17:24:51.582Z,10.43
2023-01-29T17:27:54.268Z,9.77
2023-01-29T17:31:10.810Z,9.17
2023-01-29T17:34:15.349Z,9.52
2023-01-29T17:37:18.079Z,9.27
2023-01-29T17:40:55.842Z,8.43
2023-01-29T17:43:58.639Z,8.50
2023-01-29T17:47:01.220Z,8.68
2023-01-29T17:50:21.355Z,12.00
2023-01-29T17:53:26.551Z,14.97
2023-01-29T17:56:33.216Z,11.65
2023-01-29T17:59:36.044Z,12.15
2023-01-29T18:02:39.816Z,11.90
2023-01-29T18:05:48.205Z,12.75
2023-01-29T18:08:50.826Z,12.25
2023-01-29T18:11:54.062Z,12.70
2023-01-29T18:14:56.792Z,12.27
2023-01-29T18:17:59.716Z,13.65
2023-01-29T18:21:02.368Z,12.40
2023-01-29T18:24:05.216Z,11.77
2023-01-29T18:27:08.793Z,11.85
2023-01-29T18:30:12.747Z,11.43
2023-01-29T18:33:16.901Z,10.90
2023-01-29T18:36:20.078Z,10.38
2023-01-29T18:39:22.720Z,10.80
2023-01-29T18:42:25.517Z,14.02
2023-01-29T18:45:28.746Z,16.13
2023-01-29T18:48:31.558Z,14.68
2023-01-29T18:51:34.292Z,13.02
2023-01-29T18:54:37.055Z,11.00
2023-01-29T18:58:26.541Z,12.57
2023-01-29T19:01:09.106Z,12.45
2023-01-29T19:04:12.282Z,13.90
2023-01-29T19:07:15.576Z,18.25
2023-01-29T19:10:18.729Z,16.65
2023-01-29T19:13:21.541Z,13.32
2023-01-29T19:16:24.244Z,13.02
2023-01-29T19:19:28.059Z,11.98
2023-01-29T19:22:32.232Z,10.55
2023-01-29T19:25:43.626Z,10.07
2023-01-29T19:28:46.723Z,11.07
2023-01-29T19:31:49.469Z,12.07
2023-01-29T19:34:52.547Z,13.13
2023-01-29T19:37:55.189Z,15.85
2023-01-29T19:40:59.836Z,18.45
2023-01-29T19:44:02.253Z,17.65
2023-01-29T19:47:05.638Z,13.93
2023-01-29T19:50:10.019Z,13.85
2023-01-29T19:53:12.735Z,15.85
2023-01-29T19:56:17.601Z,12.23
2023-01-29T19:59:20.892Z,12.80
2023-01-29T20:02:25.117Z,13.68
2023-01-29T20:05:27.524Z,16.60
2023-01-29T20:08:31.130Z,13.63
2023-01-29T20:11:34.084Z,11.50
2023-01-29T20:14:36.449Z,12.57
2023-01-29T20:17:39.268Z,12.38
2023-01-29T20:20:46.312Z,12.93
2023-01-29T20:23:50.429Z,11.40
2023-01-29T20:26:53.023Z,14.47
2023-01-29T20:29:55.827Z,18.17
2023-01-29T20:32:58.661Z,16.08
2023-01-29T20:36:03.314Z,15.00
2023-01-29T20:39:05.637Z,12.98
2023-01-29T20:42:08.313Z,11.35
2023-01-29T20:45:10.888Z,10.15
2023-01-29T20:48:13.564Z,10.75
2023-01-29T20:51:17.751Z,10.68
2023-01-29T20:54:20.488Z,10.48
2023-01-29T20:57:23.204Z,10.63
2023-01-29T21:00:25.530Z,11.35
2023-01-29T21:03:28.273Z,10.32
2023-01-29T21:06:31.018Z,10.57
2023-01-29T21:09:33.510Z,10.25
2023-01-29T21:12:36.156Z,10.10
2023-01-29T21:15:38.890Z,12.05
2023-01-29T21:18:41.086Z,12.52
2023-01-29T21:21:43.432Z,14.15
2023-01-29T21:24:46.187Z,16.23
2023-01-29T21:27:49.261Z,12.67
2023-01-29T21:31:02.652Z,15.55
2023-01-29T21:34:05.717Z,15.07
2023-01-29T21:37:09.672Z,14.03
2023-01-29T21:40:13.627Z,13.38
2023-01-29T21:43:16.291Z,13.13
2023-01-29T21:46:18.660Z,12.23
2023-01-29T21:49:21.596Z,17.45
2023-01-29T21:52:23.967Z,16.23
2023-01-29T21:55:26.376Z,15.25
2023-01-29T21:58:29.874Z,15.57
2023-01-29T22:01:37.916Z,16.73
2023-01-29T22:04:42.383Z,17.02
2023-01-29T22:07:44.850Z,20.73
2023-01-29T22:10:47.410Z,17.83
2023-01-29T22:13:50.024Z,18.17
2023-01-29T22:16:52.533Z,16.30
2023-01-29T22:19:55.045Z,14.00
2023-01-29T22:23:00.733Z,15.63
2023-01-29T22:26:07.588Z,15.38
2023-01-29T22:29:13.824Z,14.37
2023-01-29T22:32:16.479Z,15.77
2023-01-29T22:35:18.937Z,16.10
2023-01-29T22:38:22.703Z,15.83
2023-01-29T22:41:25.056Z,16.15
2023-01-29T22:44:27.401Z,17.00
2023-01-29T22:47:32.818Z,15.60
2023-01-29T22:50:35.180Z,16.67
2023-01-29T22:53:44.658Z,16.67
2023-01-29T22:56:47.048Z,14.95
2023-01-29T22:59:49.472Z,13.00
2023-01-29T23:02:52.156Z,15.93
2023-01-29T23:05:54.494Z,16.30
2023-01-29T23:08:57.138Z,16.50
2023-01-29T23:11:59.531Z,16.65
2023-01-29T23:15:01.982Z,17.55
2023-01-29T23:18:05.742Z,17.02
2023-01-29T23:21:08.864Z,16.88
2023-01-29T23:24:11.511Z,16.65
2023-01-29T23:27:16.510Z,17.90
2023-01-29T23:30:19.303Z,17.43
2023-01-29T23:33:22.145Z,16.77
2023-01-29T23:36:24.671Z,19.10
2023-01-29T23:39:27.047Z,20.07
2023-01-29T23:42:29.443Z,25.48
2023-01-29T23:45:31.812Z,17.13
2023-01-29T23:48:34.312Z,16.60
2023-01-29T23:51:36.717Z,18.60
2023-01-29T23:54:39.043Z,16.15
2023-01-29T23:57:41.467Z,14.27
